There are no active watches, warnings or advisories



For GOD so loved the world that HE gave HIS one and only SON, that whoever believes in HIM shall not perish but have eternal life.


Thunder radar more information blitzortung!


Rain radar more information rain snow radar



Select another period ( hide this area )

Units Period Custom range Directly to
Metric English Both
Daily Weekly Monthly Yearly
use both date-selectors for a custom range
previous Day
With this date

WeatherUnderground graphs for this period ( click here )


Daily Summary for Monday Oct 22 2018
Time Temp. ( °C ) Dew pt. ( °C ) Wind ( km/h ) from Gust ( km/h ) Pressure ( hPa ) Humid.( % ) Rainrate ( cm ) Solar ( W/m2 )
High10,9 4,6 12,9 South ( 134/483 ) 24,1 1022,6 87 - 789
Average6,6 1,9 3,7 South #44/212 8,2 1019,2 73 - 206 #118/212
Low3,2 -0,9 -   0,0 1017,5 55 -  
Daily Tabular details for Monday Oct 22 2018
Time Temp. ( °C ) Dew pt. ( °C ) Wind ( km/h ) from Gust ( km/h ) Pressure ( hPa ) Humid.( % ) Rainrate ( cm ) Solar ( W/m2 )
00:04 3,6 -0,9 0,8 NNW 3,2 1022,6 72 - -
00:09 3,6 -0,9 2,1 WNW 4,8 1022,6 72 - -
00:14 3,6 -0,9 4,0 NW 5,6 1022,6 72 - -
00:19 3,6 -0,8   Calm 1,9 1022,6 73 - -
00:24 3,6 -0,8   Calm   1022,2 73 - -
00:29 3,6 -0,8   Calm   1022,2 73 - -
00:34 3,6 -0,7   Calm   1022,2 74 - -
00:39 3,6 -0,4   Calm   1022,2 75 - -
00:44 3,5 -0,2   Calm   1022,2 77 - -
00:49 3,4 -0,4   Calm   1022,6 76 - -
00:54 3,6 -0,4   Calm   1022,2 75 - -
00:59 3,6 -0,4   Calm   1022,2 75 - -
01:04 3,7 -0,2   Calm   1022,2 76 - -
01:09 3,7 -0,2   Calm   1022,2 76 - -
01:14 3,7 0,0   Calm   1022,2 77 - -
01:19 3,4 -0,1   Calm   1022,2 78 - -
01:24 3,4 0,1   Calm   1022,2 79 - -
01:29 3,3 0,2   Calm   1022,2 80 - -
01:34 3,2 0,2   Calm   1022,2 81 - -
01:39 3,2 -0,1 0,3 NW   1022,2 79 - -
01:44 3,5 -0,3 0,6 WNW 9,3 1022,2 76 - -
01:49 3,7 -0,3   Calm 7,4 1022,2 75 - -
01:55 3,8 -0,6 0,8 WNW 3,7 1021,9 73 - -
01:59 3,7 -0,3   Calm   1021,9 75 - -
02:04 3,8 -0,4 2,1 WNW 5,6 1021,9 74 - -
02:09 3,9 -0,4 2,4 NW 1,9 1022,2 73 - -
02:14 4,1 -0,7 0,2 WNW 11,1 1021,9 71 - -
02:19 4,2 -0,6 1,1 NW 5,6 1021,9 71 - -
02:24 4,2 -0,6   Calm 3,7 1021,9 71 - -
02:29 4,1 -0,9 2,4 NW 3,7 1021,9 70 - -
02:34 4,2 -0,6   Calm   1021,9 71 - -
02:39 4,0 -0,2   Calm   1021,9 74 - -
02:45 4,0 -0,2   Calm   1021,9 74 - -
02:49 3,9 0,1   Calm   1021,9 76 - -
02:54 3,8 0,1   Calm   1021,9 77 - -
02:59 3,7 0,4   Calm   1021,9 79 - -
03:04 3,7 0,3   Calm   1021,9 79 - -
03:09 3,7 0,2 1,9 West 4,8 1021,9 78 - -
03:14 3,8 0,3 3,2 SSW 5,6 1021,9 78 - -
03:19 3,9 0,6 2,7 SSW 5,6 1021,9 79 - -
03:24 3,9 0,8 5,0 SSE 5,6 1021,6 80 - -
03:29 4,0 1,1 3,1 South 7,4 1021,9 81 - -
03:34 4,0 1,2 3,2 South 5,6 1021,6 82 - -
03:39 3,9 1,2 4,8 South 9,3 1021,6 82 - -
03:44 3,9 1,3 3,9 SSE 5,6 1021,6 83 - -
03:49 3,7 1,3 0,5 SSE 3,7 1021,6 84 - -
03:54 3,7 1,3   Calm 3,7 1021,6 84 - -
03:59 3,8 1,5 6,4 SSE 6,4 1021,6 85 - -
04:04 3,7 1,4 2,4 SSE 7,4 1021,6 85 - -
04:09 3,7 1,6 2,4 South 1,9 1021,6 86 - -
04:14 3,7 1,6 3,5 South 7,4 1021,6 86 - -
04:19 3,7 1,6 5,0 South 5,6 1021,6 86 - -
04:24 3,8 1,8 4,2 South 7,4 1021,6 87 - -
04:29 3,8 1,8 5,0 South 7,4 1021,2 87 - -
04:34 3,8 1,9 3,1 South 5,6 1021,2 87 - -
04:39 3,8 1,9 3,4 South 4,8 1021,2 87 - -
04:44 3,8 1,9 7,6 South 11,1 1021,2 87 - -
04:49 3,8 1,9 5,5 South 5,6 1021,2 87 - -
04:54 3,9 1,8 6,3 SSW 9,3 1021,2 86 - -
04:59 3,9 1,8 3,2 SSW 5,6 1020,9 86 - -
05:04 3,8 1,7 6,1 South 9,3 1020,9 86 - -
05:09 3,8 1,8 5,8 South 9,7 1020,9 87 - -
05:14 3,8 1,8 5,0 South 7,4 1020,9 87 - -
05:19 3,8 1,8 5,5 SE 11,1 1020,9 87 - -
05:24 3,8 1,8 3,1 SSE 13,0 1020,9 87 - -
05:29 3,8 1,8 4,3 South 6,4 1020,9 87 - -
05:34 3,7 1,8 6,0 SSE 9,3 1020,9 87 - -
05:40 3,7 1,8 8,0 South 11,1 1020,9 87 - -
05:44 3,8 1,8 6,6 South 9,7 1020,9 87 - -
05:49 3,8 1,8 3,9 South 13,0 1020,5 87 - -
05:54 3,8 1,9 6,4 SSE 8,0 1020,5 87 - -
05:59 3,9 1,8 3,5 SSE 5,6 1020,5 86 - -
06:04 3,9 1,8 2,9 SSE 9,3 1020,5 86 - -
06:09 3,9 1,8 7,2 SSE 11,1 1020,5 86 - -
06:14 3,9 1,8 6,0 South 9,3 1020,5 86 - -
06:19 3,9 1,8 5,3 South 7,4 1020,5 86 - -
06:24 3,9 1,8 3,5 South 5,6 1020,5 86 - -
06:29 4,0 1,9 3,1 SSW 5,6 1020,5 86 - -
06:34 4,1 1,8 6,4 SSE 11,1 1020,5 85 - -
06:39 4,1 1,8 5,5 SSE 13,0 1020,5 85 - -
06:44 4,2 1,9 8,7 SSE 9,7 1020,5 85 - -
06:49 4,2 1,7 7,6 SSW 11,3 1020,5 84 - -
06:54 4,2 1,8 7,4 SSE 9,3 1020,2 84 - -
06:59 4,3 1,8 1,9 SSE 7,4 1020,2 84 - -
07:04 4,3 1,8 3,7 SSE 9,7 1020,2 84 - -
07:09 4,3 1,9 5,0 SSE 8,0 1020,2 84 - -
07:14 4,4 1,8 3,2 South 6,4 1020,2 83 - -
07:20 4,4 1,8 5,8 SSW 7,4 1020,2 83 - -
07:24 4,4 1,8 4,5 South 7,4 1019,9 83 - -
07:29 4,4 1,8 1,3 South 5,6 1020,2 83 - -
07:34 4,5 1,9 0,3 South 5,6 1019,9 83 - -
07:39 4,4 1,8 0,2 South 5,6 1019,9 83 - -
07:44 4,5 1,9 1,9 South 1,9 1019,9 83 - -
07:49 4,6 1,9 2,6 SSE 8,0 1019,9 83 - 5
07:54 4,7 1,9 4,8 South 6,4 1019,9 82 - 5
07:59 4,8 1,8 4,7 SSE 8,0 1019,9 81 - -
08:04 4,8 1,8 3,7 South 4,8 1019,9 81 - 5
08:09 4,8 1,8 6,6 South 9,7 1019,9 81 - 7
08:14 4,8 1,8 5,0 South 9,3 1019,9 81 - 14
08:19 4,9 1,7 4,8 South 18,5 1019,9 80 - 18
08:24 4,9 1,8 5,5 South 9,3 1019,9 80 - 26
08:29 5,0 1,8 8,0 South 9,3 1019,9 80 - 32
08:34 5,1 1,7 10,3 SSW 14,5 1019,5 79 - 33
08:39 5,2 1,8 8,7 South 13,0 1019,5 79 - 39
08:44 5,3 1,8 6,1 SSW 9,3 1019,9 78 - 47
08:49 5,4 1,8 10,6 SSW 16,1 1019,9 78 - 54
08:54 5,6 2,1 6,3 South 14,8 1019,5 78 - 44
08:59 5,8 2,1 6,8 South 13,0 1019,5 77 - 54
09:04 5,9 2,2 5,3 South 12,9 1019,5 77 - 72
09:09 6,1 2,2 5,3 SSW 13,0 1019,5 76 - 86
09:14 6,2 2,2 8,0 SSW 11,1 1019,5 76 - 109
09:19 6,4 2,3 10,9 SSW 14,5 1019,5 75 - 98
09:24 6,6 2,5 6,4 South 5,6 1019,5 75 - 104
09:29 6,7 2,4 8,4 SSW 18,5 1019,5 74 - 107
09:34 6,8 2,5 2,6 WSW 11,1 1019,5 74 - 174
09:39 7,1 2,6 4,2 SW 13,0 1019,5 73 - 195
09:44 7,6 3,2 2,4 SSE 6,4 1019,5 74 - 197
09:49 7,8 3,1 7,2 SSE 11,1 1019,9 72 - 274
09:54 8,1 3,1 6,9 WSW 16,7 1019,5 71 - 380
09:59 8,0 2,8 5,6 SW 12,9 1019,9 70 - 225
10:04 8,0 2,7 1,9 WSW 7,4 1019,5 69 - 214
10:09 8,0 2,7 6,1 South 5,6 1019,5 69 - 179
10:14 7,8 2,3 6,6 SW 13,0 1019,5 68 - 144
10:19 7,7 2,6 2,9 WSW 9,3 1019,5 70 - 234
10:24 8,0 2,8 6,4 SW 13,0 1019,5 70 - 255
10:29 8,2 2,6 2,9 SSW 18,5 1019,5 68 - 253
10:34 8,1 2,3 7,2 SSW 14,8 1019,5 67 - 183
10:39 8,0 2,2 5,3 SW 14,8 1019,5 67 - 163
10:44 7,9 2,1 2,3 WSW 22,2 1019,5 67 - 176
10:49 7,9 2,3 2,6 SW 3,7 1019,5 68 - 151
10:54 7,9 1,9 2,4 SSW 5,6 1019,5 66 - 148
10:59 7,9 2,0 7,4 SSE 9,7 1019,5 66 - 193
11:04 7,9 2,0 2,1 SW 9,7 1019,5 66 - 220
11:09 8,2 2,4 3,4 WSW 9,3 1019,2 67 - 206
11:14 8,3 2,3 5,3 NW 12,9 1019,5 66 - 220
11:19 8,3 2,5 1,1 West 3,2 1019,2 67 - 248
11:24 8,4 2,2 3,2 SW 14,8 1019,5 65 - 257
11:29 8,6 2,3 9,2 SSW 18,5 1019,2 65 - 278
11:34 8,5 2,3 6,1 SSE 14,8 1019,5 65 - 301
11:39 8,9 3,3 0,2 NW 1,9 1019,2 68 - 338
11:44 8,8 2,3 0,5 West 7,4 1019,2 64 - 327
11:49 8,6 2,2 0,2 WNW 3,7 1019,2 64 - 322
11:54 8,8 2,8 3,1 SSE 5,6 1019,2 66 - 322
11:59 8,9 2,5 7,1 SSW 16,7 1019,2 64 - 306
12:04 9,1 2,9   Calm 5,6 1019,2 65 - 316
12:09 9,2 2,7   Calm 5,6 1019,2 64 - 357
12:14 9,4 2,9 0,2 South 1,9 1019,2 64 - 392
12:19 9,8 3,1 4,2 SW 11,1 1018,8 63 - 438
12:24 10,2 3,2 2,9 SSW 7,4 1018,8 62 - 366
12:29 9,8 1,9 3,1 SW 9,3 1018,8 58 - 279
12:34 9,7 2,3 5,5 WSW 16,7 1018,8 60 - 178
12:39 10,3 3,4 11,9 SSW 13,0 1018,8 62 - 708
12:44 10,8 3,4 6,8 SW 11,1 1018,8 60 - 789
12:49 10,6 2,9 12,9 South 18,5 1018,5 59 - 712
12:54 10,6 2,6 7,4 South 13,0 1018,5 58 - 306
12:59 10,2 2,7 7,9 SSW 13,0 1018,5 60 - 364
13:05 10,5 3,3 3,7 SW 11,1 1018,5 61 - 355
13:09 10,6 2,7 2,1 WNW 14,8 1018,5 58 - 346
13:14 10,7 3,9 1,8 SSE 3,7 1018,5 63 - 262
13:19 10,4 2,5 3,4 SW 5,6 1018,2 58 - 246
13:24 10,4 2,8 0,3 West 5,6 1018,2 59 - 211
13:29 10,4 2,5 4,2 West 5,6 1018,2 58 - 207
13:34 10,3 2,4 0,2 WNW 5,6 1018,2 58 - 204
13:39 10,2 2,3 1,0 West 18,5 1018,2 58 - 195
13:44 10,1 1,9 9,3 WNW 12,9 1018,2 57 - 181
13:49 9,9 2,1 4,5 WNW 13,0 1018,2 58 - 146
13:54 9,8 2,4 4,2 NW 9,3 1018,2 60 - 163
13:59 9,9 2,2 3,1 WSW 9,3 1018,2 59 - 178
14:04 9,9 2,8 11,9 WNW 16,7 1018,2 61 - 167
14:09 10,0 2,8 10,9 WNW 14,8 1018,2 61 - 163
14:14 10,0 2,3 0,6 WNW 9,3 1018,2 59 - 172
14:19 10,1 1,9 8,4 WNW 18,5 1017,8 57 - 225
14:24 10,3 2,6 5,5 WNW 14,8 1017,8 59 - 352
14:29 10,3 2,7 2,3 SE 7,4 1017,8 59 - 225
14:34 10,2 2,6 2,1 NW 5,6 1017,8 59 - 162
14:39 10,2 2,3 10,3 North 22,2 1017,8 58 - 137
14:44 10,1 2,6 3,1 West 24,1 1017,8 60 - 181
14:50 10,2 2,5 3,1 NW 7,4 1017,8 59 - 160
14:54 10,2 2,0 1,6 NW 7,4 1017,8 57 - 123
14:59 10,1 2,2 0,5 West 5,6 1017,8 58 - 132
15:04 10,1 1,9 2,7 North 9,3 1017,8 57 - 91
15:09 10,0 1,6 1,8 WNW 5,6 1017,8 56 - 188
15:14 10,2 1,5 2,9 WSW 7,4 1017,8 55 - 193
15:19 10,4 2,5 3,5 West 3,7 1017,8 58 - 213
15:24 10,6 3,2 0,6 NW 9,3 1017,8 60 - 225
15:29 10,6 2,2 3,1 WNW 6,4 1017,5 56 - 250
15:34 10,3 2,4 5,1 West 7,4 1017,5 58 - 137
15:39 10,3 2,1 4,5 WNW 5,6 1017,5 57 - 251
15:44 10,4 2,8 6,9 WNW 18,5 1017,5 59 - 482
15:49 10,9 3,2 3,1 NW 18,5 1017,5 59 - 482
15:54 10,7 3,3 1,3 SE 11,1 1017,8 60 - 378
15:59 10,7 3,4 5,5 WNW 13,0 1017,8 61 - 341
16:05 10,5 3,5 8,0 WNW 18,5 1017,8 62 - 220
16:09 10,7 3,5 3,1 WNW 20,4 1017,8 61 - 357
16:14 10,8 4,0 1,6 WSW 9,3 1017,5 63 - 288
16:19 10,6 3,8 1,1 West 5,6 1017,8 63 - 209
16:20 10,6 3,8 1,3 West 5,6 1017,5 63 - 209
16:23 10,5 3,9 1,8 ENE 7,4 1017,5 64 - 269
16:29 10,6 4,0 7,7 West 11,1 1017,5 64 - 262
16:34 10,4 4,1 4,0 North 11,1 1017,8 65 - 244
16:39 10,2 4,1 1,6 NW 11,1 1017,5 66 - 178
16:44 10,1 4,3 4,7 NW 11,3 1017,8 67 - 132
16:49 10,1 4,2 5,1 NW 9,3 1017,8 67 - 169
16:54 10,0 4,2 1,9 NW 5,6 1017,8 67 - 62
16:59 10,0 4,3 5,3 WNW 6,4 1017,8 68 - 56
17:04 9,9 4,3 2,1 NNW 13,0 1017,8 68 - 51
17:09 9,9 4,4 0,6 WNW 1,9 1017,8 69 - 44
17:14 9,8 4,6 1,3 WNW 4,8 1017,5 70 - 35
17:19 9,6 4,3 1,3 SSW 3,7 1017,8 70 - 28
17:24 9,3 4,3 0,3 WSW   1017,5 71 - 26
17:29 9,2 4,4 0,2 West 5,6 1017,5 72 - 32
17:34 9,3 4,6   Calm   1017,5 72 - 35
Daily Summary for Monday Oct 22 2018
Time Temp. ( °C ) Dew pt. ( °C ) Wind ( km/h ) from Gust ( km/h ) Pressure ( hPa ) Humid.( % ) Rainrate ( cm ) Solar ( W/m2 )
High10,9 4,6 12,9 South ( 134/483 ) 24,1 1022,6 87 - 789
Average6,6 1,9 3,7 South #44/212 8,2 1019,2 73 - 206 #118/212
Low3,2 -0,9 -   0,0 1017,5 55 -  
Daily Tabular details for Monday Oct 22 2018
Time Temp. ( °C ) Dew pt. ( °C ) Wind ( km/h ) from Gust ( km/h ) Pressure ( hPa ) Humid.( % ) Rainrate ( cm ) Solar ( W/m2 )
00:04 3,6 -0,9 0,8 NNW 3,2 1022,6 72 - -
00:09 3,6 -0,9 2,1 WNW 4,8 1022,6 72 - -
00:14 3,6 -0,9 4,0 NW 5,6 1022,6 72 - -
00:19 3,6 -0,8   Calm 1,9 1022,6 73 - -
00:24 3,6 -0,8   Calm   1022,2 73 - -
00:29 3,6 -0,8   Calm   1022,2 73 - -
00:34 3,6 -0,7   Calm   1022,2 74 - -
00:39 3,6 -0,4   Calm   1022,2 75 - -
00:44 3,5 -0,2   Calm   1022,2 77 - -
00:49 3,4 -0,4   Calm   1022,6 76 - -
00:54 3,6 -0,4   Calm   1022,2 75 - -
00:59 3,6 -0,4   Calm   1022,2 75 - -
01:04 3,7 -0,2   Calm   1022,2 76 - -
01:09 3,7 -0,2   Calm   1022,2 76 - -
01:14 3,7 0,0   Calm   1022,2 77 - -
01:19 3,4 -0,1   Calm   1022,2 78 - -
01:24 3,4 0,1   Calm   1022,2 79 - -
01:29 3,3 0,2   Calm   1022,2 80 - -
01:34 3,2 0,2   Calm   1022,2 81 - -
01:39 3,2 -0,1 0,3 NW   1022,2 79 - -
01:44 3,5 -0,3 0,6 WNW 9,3 1022,2 76 - -
01:49 3,7 -0,3   Calm 7,4 1022,2 75 - -
01:55 3,8 -0,6 0,8 WNW 3,7 1021,9 73 - -
01:59 3,7 -0,3   Calm   1021,9 75 - -
02:04 3,8 -0,4 2,1 WNW 5,6 1021,9 74 - -
02:09 3,9 -0,4 2,4 NW 1,9 1022,2 73 - -
02:14 4,1 -0,7 0,2 WNW 11,1 1021,9 71 - -
02:19 4,2 -0,6 1,1 NW 5,6 1021,9 71 - -
02:24 4,2 -0,6   Calm 3,7 1021,9 71 - -
02:29 4,1 -0,9 2,4 NW 3,7 1021,9 70 - -
02:34 4,2 -0,6   Calm   1021,9 71 - -
02:39 4,0 -0,2   Calm   1021,9 74 - -
02:45 4,0 -0,2   Calm   1021,9 74 - -
02:49 3,9 0,1   Calm   1021,9 76 - -
02:54 3,8 0,1   Calm   1021,9 77 - -
02:59 3,7 0,4   Calm   1021,9 79 - -
03:04 3,7 0,3   Calm   1021,9 79 - -
03:09 3,7 0,2 1,9 West 4,8 1021,9 78 - -
03:14 3,8 0,3 3,2 SSW 5,6 1021,9 78 - -
03:19 3,9 0,6 2,7 SSW 5,6 1021,9 79 - -
03:24 3,9 0,8 5,0 SSE 5,6 1021,6 80 - -
03:29 4,0 1,1 3,1 South 7,4 1021,9 81 - -
03:34 4,0 1,2 3,2 South 5,6 1021,6 82 - -
03:39 3,9 1,2 4,8 South 9,3 1021,6 82 - -
03:44 3,9 1,3 3,9 SSE 5,6 1021,6 83 - -
03:49 3,7 1,3 0,5 SSE 3,7 1021,6 84 - -
03:54 3,7 1,3   Calm 3,7 1021,6 84 - -
03:59 3,8 1,5 6,4 SSE 6,4 1021,6 85 - -
04:04 3,7 1,4 2,4 SSE 7,4 1021,6 85 - -
04:09 3,7 1,6 2,4 South 1,9 1021,6 86 - -
04:14 3,7 1,6 3,5 South 7,4 1021,6 86 - -
04:19 3,7 1,6 5,0 South 5,6 1021,6 86 - -
04:24 3,8 1,8 4,2 South 7,4 1021,6 87 - -
04:29 3,8 1,8 5,0 South 7,4 1021,2 87 - -
04:34 3,8 1,9 3,1 South 5,6 1021,2 87 - -
04:39 3,8 1,9 3,4 South 4,8 1021,2 87 - -
04:44 3,8 1,9 7,6 South 11,1 1021,2 87 - -
04:49 3,8 1,9 5,5 South 5,6 1021,2 87 - -
04:54 3,9 1,8 6,3 SSW 9,3 1021,2 86 - -
04:59 3,9 1,8 3,2 SSW 5,6 1020,9 86 - -
05:04 3,8 1,7 6,1 South 9,3 1020,9 86 - -
05:09 3,8 1,8 5,8 South 9,7 1020,9 87 - -
05:14 3,8 1,8 5,0 South 7,4 1020,9 87 - -
05:19 3,8 1,8 5,5 SE 11,1 1020,9 87 - -
05:24 3,8 1,8 3,1 SSE 13,0 1020,9 87 - -
05:29 3,8 1,8 4,3 South 6,4 1020,9 87 - -
05:34 3,7 1,8 6,0 SSE 9,3 1020,9 87 - -
05:40 3,7 1,8 8,0 South 11,1 1020,9 87 - -
05:44 3,8 1,8 6,6 South 9,7 1020,9 87 - -
05:49 3,8 1,8 3,9 South 13,0 1020,5 87 - -
05:54 3,8 1,9 6,4 SSE 8,0 1020,5 87 - -
05:59 3,9 1,8 3,5 SSE 5,6 1020,5 86 - -
06:04 3,9 1,8 2,9 SSE 9,3 1020,5 86 - -
06:09 3,9 1,8 7,2 SSE 11,1 1020,5 86 - -
06:14 3,9 1,8 6,0 South 9,3 1020,5 86 - -
06:19 3,9 1,8 5,3 South 7,4 1020,5 86 - -
06:24 3,9 1,8 3,5 South 5,6 1020,5 86 - -
06:29 4,0 1,9 3,1 SSW 5,6 1020,5 86 - -
06:34 4,1 1,8 6,4 SSE 11,1 1020,5 85 - -
06:39 4,1 1,8 5,5 SSE 13,0 1020,5 85 - -
06:44 4,2 1,9 8,7 SSE 9,7 1020,5 85 - -
06:49 4,2 1,7 7,6 SSW 11,3 1020,5 84 - -
06:54 4,2 1,8 7,4 SSE 9,3 1020,2 84 - -
06:59 4,3 1,8 1,9 SSE 7,4 1020,2 84 - -
07:04 4,3 1,8 3,7 SSE 9,7 1020,2 84 - -
07:09 4,3 1,9 5,0 SSE 8,0 1020,2 84 - -
07:14 4,4 1,8 3,2 South 6,4 1020,2 83 - -
07:20 4,4 1,8 5,8 SSW 7,4 1020,2 83 - -
07:24 4,4 1,8 4,5 South 7,4 1019,9 83 - -
07:29 4,4 1,8 1,3 South 5,6 1020,2 83 - -
07:34 4,5 1,9 0,3 South 5,6 1019,9 83 - -
07:39 4,4 1,8 0,2 South 5,6 1019,9 83 - -
07:44 4,5 1,9 1,9 South 1,9 1019,9 83 - -
07:49 4,6 1,9 2,6 SSE 8,0 1019,9 83 - 5
07:54 4,7 1,9 4,8 South 6,4 1019,9 82 - 5
07:59 4,8 1,8 4,7 SSE 8,0 1019,9 81 - -
08:04 4,8 1,8 3,7 South 4,8 1019,9 81 - 5
08:09 4,8 1,8 6,6 South 9,7 1019,9 81 - 7
08:14 4,8 1,8 5,0 South 9,3 1019,9 81 - 14
08:19 4,9 1,7 4,8 South 18,5 1019,9 80 - 18
08:24 4,9 1,8 5,5 South 9,3 1019,9 80 - 26
08:29 5,0 1,8 8,0 South 9,3 1019,9 80 - 32
08:34 5,1 1,7 10,3 SSW 14,5 1019,5 79 - 33
08:39 5,2 1,8 8,7 South 13,0 1019,5 79 - 39
08:44 5,3 1,8 6,1 SSW 9,3 1019,9 78 - 47
08:49 5,4 1,8 10,6 SSW 16,1 1019,9 78 - 54
08:54 5,6 2,1 6,3 South 14,8 1019,5 78 - 44
08:59 5,8 2,1 6,8 South 13,0 1019,5 77 - 54
09:04 5,9 2,2 5,3 South 12,9 1019,5 77 - 72
09:09 6,1 2,2 5,3 SSW 13,0 1019,5 76 - 86
09:14 6,2 2,2 8,0 SSW 11,1 1019,5 76 - 109
09:19 6,4 2,3 10,9 SSW 14,5 1019,5 75 - 98
09:24 6,6 2,5 6,4 South 5,6 1019,5 75 - 104
09:29 6,7 2,4 8,4 SSW 18,5 1019,5 74 - 107
09:34 6,8 2,5 2,6 WSW 11,1 1019,5 74 - 174
09:39 7,1 2,6 4,2 SW 13,0 1019,5 73 - 195
09:44 7,6 3,2 2,4 SSE 6,4 1019,5 74 - 197
09:49 7,8 3,1 7,2 SSE 11,1 1019,9 72 - 274
09:54 8,1 3,1 6,9 WSW 16,7 1019,5 71 - 380
09:59 8,0 2,8 5,6 SW 12,9 1019,9 70 - 225
10:04 8,0 2,7 1,9 WSW 7,4 1019,5 69 - 214
10:09 8,0 2,7 6,1 South 5,6 1019,5 69 - 179
10:14 7,8 2,3 6,6 SW 13,0 1019,5 68 - 144
10:19 7,7 2,6 2,9 WSW 9,3 1019,5 70 - 234
10:24 8,0 2,8 6,4 SW 13,0 1019,5 70 - 255
10:29 8,2 2,6 2,9 SSW 18,5 1019,5 68 - 253
10:34 8,1 2,3 7,2 SSW 14,8 1019,5 67 - 183
10:39 8,0 2,2 5,3 SW 14,8 1019,5 67 - 163
10:44 7,9 2,1 2,3 WSW 22,2 1019,5 67 - 176
10:49 7,9 2,3 2,6 SW 3,7 1019,5 68 - 151
10:54 7,9 1,9 2,4 SSW 5,6 1019,5 66 - 148
10:59 7,9 2,0 7,4 SSE 9,7 1019,5 66 - 193
11:04 7,9 2,0 2,1 SW 9,7 1019,5 66 - 220
11:09 8,2 2,4 3,4 WSW 9,3 1019,2 67 - 206
11:14 8,3 2,3 5,3 NW 12,9 1019,5 66 - 220
11:19 8,3 2,5 1,1 West 3,2 1019,2 67 - 248
11:24 8,4 2,2 3,2 SW 14,8 1019,5 65 - 257
11:29 8,6 2,3 9,2 SSW 18,5 1019,2 65 - 278
11:34 8,5 2,3 6,1 SSE 14,8 1019,5 65 - 301
11:39 8,9 3,3 0,2 NW 1,9 1019,2 68 - 338
11:44 8,8 2,3 0,5 West 7,4 1019,2 64 - 327
11:49 8,6 2,2 0,2 WNW 3,7 1019,2 64 - 322
11:54 8,8 2,8 3,1 SSE 5,6 1019,2 66 - 322
11:59 8,9 2,5 7,1 SSW 16,7 1019,2 64 - 306
12:04 9,1 2,9   Calm 5,6 1019,2 65 - 316
12:09 9,2 2,7   Calm 5,6 1019,2 64 - 357
12:14 9,4 2,9 0,2 South 1,9 1019,2 64 - 392
12:19 9,8 3,1 4,2 SW 11,1 1018,8 63 - 438
12:24 10,2 3,2 2,9 SSW 7,4 1018,8 62 - 366
12:29 9,8 1,9 3,1 SW 9,3 1018,8 58 - 279
12:34 9,7 2,3 5,5 WSW 16,7 1018,8 60 - 178
12:39 10,3 3,4 11,9 SSW 13,0 1018,8 62 - 708
12:44 10,8 3,4 6,8 SW 11,1 1018,8 60 - 789
12:49 10,6 2,9 12,9 South 18,5 1018,5 59 - 712
12:54 10,6 2,6 7,4 South 13,0 1018,5 58 - 306
12:59 10,2 2,7 7,9 SSW 13,0 1018,5 60 - 364
13:05 10,5 3,3 3,7 SW 11,1 1018,5 61 - 355
13:09 10,6 2,7 2,1 WNW 14,8 1018,5 58 - 346
13:14 10,7 3,9 1,8 SSE 3,7 1018,5 63 - 262
13:19 10,4 2,5 3,4 SW 5,6 1018,2 58 - 246
13:24 10,4 2,8 0,3 West 5,6 1018,2 59 - 211
13:29 10,4 2,5 4,2 West 5,6 1018,2 58 - 207
13:34 10,3 2,4 0,2 WNW 5,6 1018,2 58 - 204
13:39 10,2 2,3 1,0 West 18,5 1018,2 58 - 195
13:44 10,1 1,9 9,3 WNW 12,9 1018,2 57 - 181
13:49 9,9 2,1 4,5 WNW 13,0 1018,2 58 - 146
13:54 9,8 2,4 4,2 NW 9,3 1018,2 60 - 163
13:59 9,9 2,2 3,1 WSW 9,3 1018,2 59 - 178
14:04 9,9 2,8 11,9 WNW 16,7 1018,2 61 - 167
14:09 10,0 2,8 10,9 WNW 14,8 1018,2 61 - 163
14:14 10,0 2,3 0,6 WNW 9,3 1018,2 59 - 172
14:19 10,1 1,9 8,4 WNW 18,5 1017,8 57 - 225
14:24 10,3 2,6 5,5 WNW 14,8 1017,8 59 - 352
14:29 10,3 2,7 2,3 SE 7,4 1017,8 59 - 225
14:34 10,2 2,6 2,1 NW 5,6 1017,8 59 - 162
14:39 10,2 2,3 10,3 North 22,2 1017,8 58 - 137
14:44 10,1 2,6 3,1 West 24,1 1017,8 60 - 181
14:50 10,2 2,5 3,1 NW 7,4 1017,8 59 - 160
14:54 10,2 2,0 1,6 NW 7,4 1017,8 57 - 123
14:59 10,1 2,2 0,5 West 5,6 1017,8 58 - 132
15:04 10,1 1,9 2,7 North 9,3 1017,8 57 - 91
15:09 10,0 1,6 1,8 WNW 5,6 1017,8 56 - 188
15:14 10,2 1,5 2,9 WSW 7,4 1017,8 55 - 193
15:19 10,4 2,5 3,5 West 3,7 1017,8 58 - 213
15:24 10,6 3,2 0,6 NW 9,3 1017,8 60 - 225
15:29 10,6 2,2 3,1 WNW 6,4 1017,5 56 - 250
15:34 10,3 2,4 5,1 West 7,4 1017,5 58 - 137
15:39 10,3 2,1 4,5 WNW 5,6 1017,5 57 - 251
15:44 10,4 2,8 6,9 WNW 18,5 1017,5 59 - 482
15:49 10,9 3,2 3,1 NW 18,5 1017,5 59 - 482
15:54 10,7 3,3 1,3 SE 11,1 1017,8 60 - 378
15:59 10,7 3,4 5,5 WNW 13,0 1017,8 61 - 341
16:05 10,5 3,5 8,0 WNW 18,5 1017,8 62 - 220
16:09 10,7 3,5 3,1 WNW 20,4 1017,8 61 - 357
16:14 10,8 4,0 1,6 WSW 9,3 1017,5 63 - 288
16:19 10,6 3,8 1,1 West 5,6 1017,8 63 - 209
16:20 10,6 3,8 1,3 West 5,6 1017,5 63 - 209
16:23 10,5 3,9 1,8 ENE 7,4 1017,5 64 - 269
16:29 10,6 4,0 7,7 West 11,1 1017,5 64 - 262
16:34 10,4 4,1 4,0 North 11,1 1017,8 65 - 244
16:39 10,2 4,1 1,6 NW 11,1 1017,5 66 - 178
16:44 10,1 4,3 4,7 NW 11,3 1017,8 67 - 132
16:49 10,1 4,2 5,1 NW 9,3 1017,8 67 - 169
16:54 10,0 4,2 1,9 NW 5,6 1017,8 67 - 62
16:59 10,0 4,3 5,3 WNW 6,4 1017,8 68 - 56
17:04 9,9 4,3 2,1 NNW 13,0 1017,8 68 - 51
17:09 9,9 4,4 0,6 WNW 1,9 1017,8 69 - 44
17:14 9,8 4,6 1,3 WNW 4,8 1017,5 70 - 35
17:19 9,6 4,3 1,3 SSW 3,7 1017,8 70 - 28
17:24 9,3 4,3 0,3 WSW   1017,5 71 - 26
17:29 9,2 4,4 0,2 West 5,6 1017,5 72 - 32
17:34 9,3 4,6   Calm   1017,5 72 - 35

Download your copy of this data-set  here

Our weather-data as stored at Weather Underground. Script developed by Jim McMurry. Adapted for the template by Leuven-Template.eu